sensor_id;sensor_type;location;lat;lon;timestamp;pressure;altitude;pressure_sealevel;temperature;humidity
24620;BME280;12763;55.802;37.404;2022-07-03T00:01:50;99555.75;;;25.04;39.13
24620;BME280;12763;55.802;37.404;2022-07-03T00:04:16;99547.91;;;24.69;40.12
24620;BME280;12763;55.802;37.404;2022-07-03T00:06:44;99540.09;;;24.66;40.67
24620;BME280;12763;55.802;37.404;2022-07-03T00:09:10;99534.69;;;24.97;40.48
24620;BME280;12763;55.802;37.404;2022-07-03T00:11:36;99535.25;;;24.53;41.74
24620;BME280;12763;55.802;37.404;2022-07-03T00:14:02;99530.91;;;24.74;41.10
24620;BME280;12763;55.802;37.404;2022-07-03T00:16:29;99538.59;;;24.87;41.02
24620;BME280;12763;55.802;37.404;2022-07-03T00:18:55;99535.88;;;24.50;42.01
24620;BME280;12763;55.802;37.404;2022-07-03T00:21:28;99538.09;;;24.02;44.78
24620;BME280;12763;55.802;37.404;2022-07-03T00:24:08;99536.56;;;23.72;46.46
24620;BME280;12763;55.802;37.404;2022-07-03T00:26:39;99525.75;;;23.42;46.54
24620;BME280;12763;55.802;37.404;2022-07-03T00:29:07;99533.06;;;23.43;46.54
24620;BME280;12763;55.802;37.404;2022-07-03T00:31:37;99529.50;;;24.12;45.24
24620;BME280;12763;55.802;37.404;2022-07-03T00:34:08;99530.94;;;24.42;44.51
24620;BME280;12763;55.802;37.404;2022-07-03T00:36:48;99527.72;;;23.97;45.80
24620;BME280;12763;55.802;37.404;2022-07-03T00:39:14;99513.56;;;23.84;45.74
24620;BME280;12763;55.802;37.404;2022-07-03T00:41:40;99510.56;;;23.80;45.79
24620;BME280;12763;55.802;37.404;2022-07-03T00:44:07;99511.72;;;23.61;46.16
24620;BME280;12763;55.802;37.404;2022-07-03T00:46:37;99505.44;;;23.45;48.16
24620;BME280;12763;55.802;37.404;2022-07-03T00:49:04;99510.50;;;23.24;48.13
24620;BME280;12763;55.802;37.404;2022-07-03T00:51:33;99501.22;;;23.24;48.55
24620;BME280;12763;55.802;37.404;2022-07-03T00:54:03;99505.75;;;23.44;48.88
24620;BME280;12763;55.802;37.404;2022-07-03T00:56:30;99508.66;;;23.15;49.79
24620;BME280;12763;55.802;37.404;2022-07-03T00:59:00;99506.50;;;23.30;49.69
24620;BME280;12763;55.802;37.404;2022-07-03T01:01:32;99508.06;;;23.42;49.80
24620;BME280;12763;55.802;37.404;2022-07-03T01:09:06;99504.09;;;23.80;48.28
24620;BME280;12763;55.802;37.404;2022-07-03T01:11:58;99511.09;;;23.64;51.02
24620;BME280;12763;55.802;37.404;2022-07-03T01:15:07;99514.53;;;23.37;51.46
24620;BME280;12763;55.802;37.404;2022-07-03T01:17:31;99514.75;;;23.22;51.57
24620;BME280;12763;55.802;37.404;2022-07-03T01:20:02;99507.34;;;23.07;52.51
24620;BME280;12763;55.802;37.404;2022-07-03T01:27:41;99507.38;;;23.50;52.01
24620;BME280;12763;55.802;37.404;2022-07-03T01:30:11;99501.53;;;23.22;52.87
24620;BME280;12763;55.802;37.404;2022-07-03T01:32:41;99510.25;;;23.21;52.96
24620;BME280;12763;55.802;37.404;2022-07-03T01:35:12;99510.25;;;23.63;51.98
24620;BME280;12763;55.802;37.404;2022-07-03T01:37:39;99511.38;;;23.81;51.44
24620;BME280;12763;55.802;37.404;2022-07-03T01:40:07;99509.81;;;24.07;50.76
24620;BME280;12763;55.802;37.404;2022-07-03T01:42:36;99512.59;;;24.12;50.79
24620;BME280;12763;55.802;37.404;2022-07-03T01:45:15;99509.50;;;24.27;50.55
24620;BME280;12763;55.802;37.404;2022-07-03T01:47:46;99504.34;;;24.16;50.44
24620;BME280;12763;55.802;37.404;2022-07-03T01:50:15;99511.97;;;24.15;51.01
24620;BME280;12763;55.802;37.404;2022-07-03T01:52:43;99509.78;;;23.93;52.17
24620;BME280;12763;55.802;37.404;2022-07-03T01:55:14;99503.59;;;24.10;51.10
24620;BME280;12763;55.802;37.404;2022-07-03T01:57:46;99517.09;;;24.13;51.28
24620;BME280;12763;55.802;37.404;2022-07-03T02:00:16;99507.94;;;24.03;51.77
24620;BME280;12763;55.802;37.404;2022-07-03T02:03:04;99509.44;;;23.95;52.08
24620;BME280;12763;55.802;37.404;2022-07-03T02:05:32;99510.66;;;24.26;50.32
24620;BME280;12763;55.802;37.404;2022-07-03T02:11:08;99516.88;;;24.55;49.39
24620;BME280;12763;55.802;37.404;2022-07-03T02:14:10;99514.66;;;24.52;49.04
24620;BME280;12763;55.802;37.404;2022-07-03T02:17:17;99497.22;;;24.64;48.57
24620;BME280;12763;55.802;37.404;2022-07-03T02:19:56;99498.72;;;24.75;47.91
24620;BME280;12763;55.802;37.404;2022-07-03T02:22:52;99509.34;;;24.51;47.80
24620;BME280;12763;55.802;37.404;2022-07-03T02:25:40;99500.91;;;24.65;47.78
24620;BME280;12763;55.802;37.404;2022-07-03T02:30:49;99500.25;;;24.08;48.32
24620;BME280;12763;55.802;37.404;2022-07-03T02:33:19;99501.97;;;24.04;48.55
24620;BME280;12763;55.802;37.404;2022-07-03T02:35:48;99499.34;;;23.94;48.63
24620;BME280;12763;55.802;37.404;2022-07-03T02:38:20;99495.41;;;23.58;49.60
24620;BME280;12763;55.802;37.404;2022-07-03T02:41:15;99491.44;;;23.59;49.02
24620;BME280;12763;55.802;37.404;2022-07-03T02:46:40;99503.88;;;24.27;47.44
24620;BME280;12763;55.802;37.404;2022-07-03T02:49:41;99496.34;;;24.36;47.27
24620;BME280;12763;55.802;37.404;2022-07-03T02:52:23;99500.91;;;24.65;46.71
24620;BME280;12763;55.802;37.404;2022-07-03T02:54:57;99501.59;;;24.43;47.06
24620;BME280;12763;55.802;37.404;2022-07-03T02:57:42;99498.63;;;24.80;46.56
24620;BME280;12763;55.802;37.404;2022-07-03T03:00:10;99490.47;;;24.65;46.58
24620;BME280;12763;55.802;37.404;2022-07-03T03:05:37;99501.63;;;24.70;46.53
24620;BME280;12763;55.802;37.404;2022-07-03T03:08:16;99500.78;;;24.70;47.08
24620;BME280;12763;55.802;37.404;2022-07-03T03:10:47;99505.44;;;24.79;46.66
24620;BME280;12763;55.802;37.404;2022-07-03T03:13:17;99502.88;;;24.64;46.82
24620;BME280;12763;55.802;37.404;2022-07-03T03:16:09;99498.97;;;24.92;46.23
24620;BME280;12763;55.802;37.404;2022-07-03T03:18:38;99496.84;;;25.25;45.96
24620;BME280;12763;55.802;37.404;2022-07-03T03:21:16;99497.78;;;25.34;45.77
24620;BME280;12763;55.802;37.404;2022-07-03T03:23:47;99499.34;;;25.40;45.92
24620;BME280;12763;55.802;37.404;2022-07-03T03:26:18;99495.97;;;25.38;45.39
24620;BME280;12763;55.802;37.404;2022-07-03T03:28:45;99496.81;;;25.39;45.18
24620;BME280;12763;55.802;37.404;2022-07-03T03:31:12;99495.22;;;25.96;44.03
24620;BME280;12763;55.802;37.404;2022-07-03T03:33:49;99482.38;;;25.90;44.43
24620;BME280;12763;55.802;37.404;2022-07-03T03:36:20;99489.94;;;26.03;43.94
24620;BME280;12763;55.802;37.404;2022-07-03T03:38:50;99491.84;;;25.94;44.39
24620;BME280;12763;55.802;37.404;2022-07-03T03:41:17;99492.25;;;25.79;44.68
24620;BME280;12763;55.802;37.404;2022-07-03T03:43:45;99495.53;;;25.58;45.17
24620;BME280;12763;55.802;37.404;2022-07-03T03:46:12;99493.75;;;26.20;43.30
24620;BME280;12763;55.802;37.404;2022-07-03T03:48:40;99490.47;;;26.27;43.37
24620;BME280;12763;55.802;37.404;2022-07-03T03:51:07;99484.09;;;26.21;43.74
24620;BME280;12763;55.802;37.404;2022-07-03T03:53:33;99488.69;;;26.93;42.14
24620;BME280;12763;55.802;37.404;2022-07-03T03:56:08;99488.81;;;26.88;43.06
24620;BME280;12763;55.802;37.404;2022-07-03T03:58:37;99473.09;;;26.73;42.97
24620;BME280;12763;55.802;37.404;2022-07-03T04:01:04;99478.06;;;26.67;42.72
24620;BME280;12763;55.802;37.404;2022-07-03T04:03:32;99475.69;;;26.61;43.26
24620;BME280;12763;55.802;37.404;2022-07-03T04:05:58;99465.69;;;26.63;43.58
24620;BME280;12763;55.802;37.404;2022-07-03T04:08:25;99476.00;;;26.90;43.13
24620;BME280;12763;55.802;37.404;2022-07-03T04:10:52;99473.03;;;27.04;42.71
24620;BME280;12763;55.802;37.404;2022-07-03T04:13:19;99473.25;;;26.76;43.99
24620;BME280;12763;55.802;37.404;2022-07-03T04:15:46;99467.38;;;26.34;45.24
24620;BME280;12763;55.802;37.404;2022-07-03T04:18:13;99472.19;;;26.33;44.90
24620;BME280;12763;55.802;37.404;2022-07-03T04:20:39;99473.00;;;26.56;44.82
24620;BME280;12763;55.802;37.404;2022-07-03T04:23:05;99471.75;;;26.70;44.28
24620;BME280;12763;55.802;37.404;2022-07-03T04:25:31;99476.50;;;26.83;44.12
24620;BME280;12763;55.802;37.404;2022-07-03T04:27:58;99473.81;;;26.78;44.44
24620;BME280;12763;55.802;37.404;2022-07-03T04:30:24;99475.88;;;27.04;43.82
24620;BME280;12763;55.802;37.404;2022-07-03T04:32:51;99472.06;;;27.08;44.02
24620;BME280;12763;55.802;37.404;2022-07-03T04:35:17;99473.25;;;27.16;43.48
24620;BME280;12763;55.802;37.404;2022-07-03T04:37:44;99476.28;;;27.28;43.57
24620;BME280;12763;55.802;37.404;2022-07-03T04:40:11;99474.50;;;27.40;43.66
24620;BME280;12763;55.802;37.404;2022-07-03T04:42:40;99474.97;;;27.34;43.71
24620;BME280;12763;55.802;37.404;2022-07-03T04:45:08;99473.34;;;27.42;43.36
24620;BME280;12763;55.802;37.404;2022-07-03T04:47:34;99482.56;;;27.08;44.90
24620;BME280;12763;55.802;37.404;2022-07-03T04:50:01;99473.44;;;27.19;44.89
24620;BME280;12763;55.802;37.404;2022-07-03T04:52:28;99474.59;;;27.27;44.02
24620;BME280;12763;55.802;37.404;2022-07-03T04:54:54;99469.34;;;27.68;42.88
24620;BME280;12763;55.802;37.404;2022-07-03T04:57:20;99469.34;;;27.60;43.17
24620;BME280;12763;55.802;37.404;2022-07-03T04:59:46;99476.53;;;27.57;43.82
24620;BME280;12763;55.802;37.404;2022-07-03T05:02:21;99471.88;;;27.61;43.97
24620;BME280;12763;55.802;37.404;2022-07-03T05:04:47;99474.69;;;27.53;44.99
24620;BME280;12763;55.802;37.404;2022-07-03T05:07:13;99471.03;;;27.52;43.84
24620;BME280;12763;55.802;37.404;2022-07-03T05:09:39;99469.16;;;27.56;43.90
24620;BME280;12763;55.802;37.404;2022-07-03T05:12:06;99470.34;;;27.55;43.79
24620;BME280;12763;55.802;37.404;2022-07-03T05:14:32;99468.75;;;27.23;44.76
24620;BME280;12763;55.802;37.404;2022-07-03T05:16:58;99464.28;;;27.22;45.71
24620;BME280;12763;55.802;37.404;2022-07-03T05:19:26;99471.94;;;27.22;45.65
24620;BME280;12763;55.802;37.404;2022-07-03T05:21:52;99470.09;;;27.17;45.93
24620;BME280;12763;55.802;37.404;2022-07-03T05:24:18;99467.25;;;27.09;45.79
24620;BME280;12763;55.802;37.404;2022-07-03T05:26:44;99466.34;;;27.65;44.47
24620;BME280;12763;55.802;37.404;2022-07-03T05:29:10;99463.72;;;28.03;42.84
24620;BME280;12763;55.802;37.404;2022-07-03T05:31:36;99468.34;;;27.98;43.49
24620;BME280;12763;55.802;37.404;2022-07-03T05:34:02;99470.69;;;28.22;42.93
24620;BME280;12763;55.802;37.404;2022-07-03T05:36:29;99465.34;;;28.21;43.24
24620;BME280;12763;55.802;37.404;2022-07-03T05:38:54;99470.34;;;28.24;43.86
24620;BME280;12763;55.802;37.404;2022-07-03T05:41:39;99457.50;;;28.18;43.33
24620;BME280;12763;55.802;37.404;2022-07-03T05:44:07;99474.66;;;28.47;42.70
24620;BME280;12763;55.802;37.404;2022-07-03T05:46:33;99472.28;;;28.58;42.21
24620;BME280;12763;55.802;37.404;2022-07-03T05:48:59;99465.94;;;28.52;43.37
24620;BME280;12763;55.802;37.404;2022-07-03T05:51:25;99462.03;;;28.19;44.40
24620;BME280;12763;55.802;37.404;2022-07-03T05:53:51;99458.03;;;27.85;45.76
24620;BME280;12763;55.802;37.404;2022-07-03T05:56:17;99465.53;;;28.07;45.22
24620;BME280;12763;55.802;37.404;2022-07-03T05:58:43;99459.00;;;28.15;44.04
24620;BME280;12763;55.802;37.404;2022-07-03T06:01:09;99469.47;;;28.49;42.88
24620;BME280;12763;55.802;37.404;2022-07-03T06:03:35;99470.53;;;28.82;42.99
24620;BME280;12763;55.802;37.404;2022-07-03T06:06:04;99460.16;;;28.86;42.92
24620;BME280;12763;55.802;37.404;2022-07-03T06:08:30;99457.13;;;28.91;42.93
24620;BME280;12763;55.802;37.404;2022-07-03T06:10:56;99461.25;;;29.02;42.18
24620;BME280;12763;55.802;37.404;2022-07-03T06:13:23;99474.38;;;29.16;42.24
24620;BME280;12763;55.802;37.404;2022-07-03T06:15:52;99463.97;;;29.20;42.28
24620;BME280;12763;55.802;37.404;2022-07-03T06:18:18;99460.53;;;29.05;41.98
24620;BME280;12763;55.802;37.404;2022-07-03T06:20:44;99459.81;;;29.17;42.23
24620;BME280;12763;55.802;37.404;2022-07-03T06:23:10;99460.28;;;29.28;41.90
24620;BME280;12763;55.802;37.404;2022-07-03T06:25:36;99459.97;;;28.91;43.75
24620;BME280;12763;55.802;37.404;2022-07-03T06:28:02;99463.84;;;28.78;43.88
24620;BME280;12763;55.802;37.404;2022-07-03T06:30:28;99457.41;;;28.98;43.44
24620;BME280;12763;55.802;37.404;2022-07-03T06:32:54;99454.38;;;29.03;43.76
24620;BME280;12763;55.802;37.404;2022-07-03T06:35:22;99456.13;;;29.25;42.95
24620;BME280;12763;55.802;37.404;2022-07-03T06:37:49;99461.00;;;29.45;43.04
24620;BME280;12763;55.802;37.404;2022-07-03T06:40:15;99462.31;;;29.48;42.18
24620;BME280;12763;55.802;37.404;2022-07-03T06:42:41;99460.47;;;29.52;42.71
24620;BME280;12763;55.802;37.404;2022-07-03T06:45:07;99451.03;;;29.60;42.14
24620;BME280;12763;55.802;37.404;2022-07-03T06:47:38;99462.47;;;29.72;40.91
24620;BME280;12763;55.802;37.404;2022-07-03T06:50:06;99458.81;;;29.72;41.23
24620;BME280;12763;55.802;37.404;2022-07-03T06:52:32;99469.00;;;29.52;42.35
24620;BME280;12763;55.802;37.404;2022-07-03T06:54:58;99457.56;;;29.60;42.91
24620;BME280;12763;55.802;37.404;2022-07-03T06:57:24;99463.63;;;29.30;43.48
24620;BME280;12763;55.802;37.404;2022-07-03T06:59:50;99471.22;;;29.46;43.46
24620;BME280;12763;55.802;37.404;2022-07-03T07:02:16;99454.38;;;29.62;43.03
24620;BME280;12763;55.802;37.404;2022-07-03T07:04:42;99458.72;;;29.59;42.67
24620;BME280;12763;55.802;37.404;2022-07-03T07:07:09;99457.47;;;29.69;42.96
24620;BME280;12763;55.802;37.404;2022-07-03T07:09:34;99457.97;;;29.71;43.16
24620;BME280;12763;55.802;37.404;2022-07-03T07:12:03;99462.13;;;29.94;42.46
24620;BME280;12763;55.802;37.404;2022-07-03T07:14:29;99456.09;;;29.75;42.87
24620;BME280;12763;55.802;37.404;2022-07-03T07:16:55;99446.88;;;29.78;42.13
24620;BME280;12763;55.802;37.404;2022-07-03T07:19:21;99461.44;;;29.97;41.43
24620;BME280;12763;55.802;37.404;2022-07-03T07:21:47;99464.09;;;29.82;41.56
24620;BME280;12763;55.802;37.404;2022-07-03T07:24:13;99455.97;;;30.13;40.85
24620;BME280;12763;55.802;37.404;2022-07-03T07:26:39;99458.75;;;30.34;40.59
24620;BME280;12763;55.802;37.404;2022-07-03T07:29:06;99465.06;;;30.06;41.41
24620;BME280;12763;55.802;37.404;2022-07-03T07:31:32;99457.00;;;30.08;40.98
24620;BME280;12763;55.802;37.404;2022-07-03T07:33:58;99451.03;;;30.34;40.92
24620;BME280;12763;55.802;37.404;2022-07-03T07:36:24;99455.28;;;30.28;41.01
24620;BME280;12763;55.802;37.404;2022-07-03T07:38:50;99454.44;;;30.48;40.47
24620;BME280;12763;55.802;37.404;2022-07-03T07:41:19;99448.03;;;30.18;40.55
24620;BME280;12763;55.802;37.404;2022-07-03T07:43:45;99464.75;;;29.99;40.33
24620;BME280;12763;55.802;37.404;2022-07-03T07:46:11;99457.97;;;30.12;40.01
24620;BME280;12763;55.802;37.404;2022-07-03T07:48:37;99457.50;;;30.43;39.55
24620;BME280;12763;55.802;37.404;2022-07-03T07:51:03;99453.41;;;30.65;38.90
24620;BME280;12763;55.802;37.404;2022-07-03T07:53:29;99466.34;;;30.87;38.91
24620;BME280;12763;55.802;37.404;2022-07-03T07:55:55;99459.69;;;30.82;39.20
24620;BME280;12763;55.802;37.404;2022-07-03T07:58:20;99457.25;;;31.05;38.50
24620;BME280;12763;55.802;37.404;2022-07-03T08:00:48;99451.56;;;31.05;38.19
24620;BME280;12763;55.802;37.404;2022-07-03T08:03:33;99454.69;;;30.79;38.38
24620;BME280;12763;55.802;37.404;2022-07-03T08:06:17;99457.09;;;30.65;38.62
24620;BME280;12763;55.802;37.404;2022-07-03T08:08:44;99462.34;;;31.00;37.83
24620;BME280;12763;55.802;37.404;2022-07-03T08:11:10;99452.03;;;30.95;38.04
24620;BME280;12763;55.802;37.404;2022-07-03T08:13:35;99446.09;;;31.12;37.96
24620;BME280;12763;55.802;37.404;2022-07-03T08:16:02;99456.06;;;30.94;38.37
24620;BME280;12763;55.802;37.404;2022-07-03T08:18:27;99447.94;;;30.72;38.59
24620;BME280;12763;55.802;37.404;2022-07-03T08:20:54;99464.19;;;30.59;38.62
24620;BME280;12763;55.802;37.404;2022-07-03T08:23:20;99457.69;;;30.83;38.20
24620;BME280;12763;55.802;37.404;2022-07-03T08:25:46;99452.72;;;31.04;37.22
24620;BME280;12763;55.802;37.404;2022-07-03T08:28:12;99458.63;;;30.75;37.09
24620;BME280;12763;55.802;37.404;2022-07-03T08:30:38;99461.84;;;30.73;37.02
24620;BME280;12763;55.802;37.404;2022-07-03T08:33:04;99461.06;;;30.52;37.72
24620;BME280;12763;55.802;37.404;2022-07-03T08:35:30;99457.44;;;30.76;36.82
24620;BME280;12763;55.802;37.404;2022-07-03T08:37:56;99455.00;;;31.11;36.49
24620;BME280;12763;55.802;37.404;2022-07-03T08:40:22;99450.81;;;30.96;36.51
24620;BME280;12763;55.802;37.404;2022-07-03T08:42:53;99453.41;;;30.77;36.22
24620;BME280;12763;55.802;37.404;2022-07-03T08:45:20;99456.06;;;31.18;36.18
24620;BME280;12763;55.802;37.404;2022-07-03T08:47:48;99445.38;;;31.27;35.68
24620;BME280;12763;55.802;37.404;2022-07-03T08:50:17;99444.28;;;31.32;35.60
24620;BME280;12763;55.802;37.404;2022-07-03T08:52:44;99440.63;;;31.19;35.56
24620;BME280;12763;55.802;37.404;2022-07-03T08:55:11;99448.31;;;30.82;35.58
24620;BME280;12763;55.802;37.404;2022-07-03T08:57:43;99442.25;;;30.60;36.18
24620;BME280;12763;55.802;37.404;2022-07-03T09:00:12;99438.09;;;30.69;35.36
24620;BME280;12763;55.802;37.404;2022-07-03T09:02:42;99436.91;;;30.70;35.51
24620;BME280;12763;55.802;37.404;2022-07-03T09:05:10;99431.47;;;31.02;35.61
24620;BME280;12763;55.802;37.404;2022-07-03T09:07:39;99443.69;;;30.90;35.89
24620;BME280;12763;55.802;37.404;2022-07-03T09:10:13;99448.41;;;30.74;35.03
24620;BME280;12763;55.802;37.404;2022-07-03T09:12:40;99438.44;;;30.80;34.88
24620;BME280;12763;55.802;37.404;2022-07-03T09:15:08;99446.56;;;31.14;34.46
24620;BME280;12763;55.802;37.404;2022-07-03T09:17:34;99454.41;;;31.05;34.61
24620;BME280;12763;55.802;37.404;2022-07-03T09:20:03;99434.91;;;31.07;34.68
24620;BME280;12763;55.802;37.404;2022-07-03T09:22:35;99443.22;;;31.36;34.14
24620;BME280;12763;55.802;37.404;2022-07-03T09:25:09;99443.47;;;31.31;33.50
24620;BME280;12763;55.802;37.404;2022-07-03T09:27:39;99447.25;;;31.35;33.40
24620;BME280;12763;55.802;37.404;2022-07-03T09:30:14;99457.34;;;31.21;33.08
24620;BME280;12763;55.802;37.404;2022-07-03T09:32:41;99458.31;;;31.13;33.74
24620;BME280;12763;55.802;37.404;2022-07-03T09:38:00;99449.03;;;31.52;32.28
24620;BME280;12763;55.802;37.404;2022-07-03T09:40:50;99445.72;;;32.02;32.25
24620;BME280;12763;55.802;37.404;2022-07-03T09:43:30;99448.44;;;31.59;32.42
24620;BME280;12763;55.802;37.404;2022-07-03T09:46:01;99436.44;;;31.93;31.09
24620;BME280;12763;55.802;37.404;2022-07-03T09:48:32;99438.25;;;32.25;30.90
24620;BME280;12763;55.802;37.404;2022-07-03T09:51:20;99447.25;;;32.71;29.58
24620;BME280;12763;55.802;37.404;2022-07-03T09:56:27;99452.00;;;32.51;30.57
24620;BME280;12763;55.802;37.404;2022-07-03T10:01:31;99429.84;;;32.76;29.97
24620;BME280;12763;55.802;37.404;2022-07-03T10:04:21;99439.97;;;32.58;28.87
24620;BME280;12763;55.802;37.404;2022-07-03T10:06:55;99437.50;;;33.03;29.43
24620;BME280;12763;55.802;37.404;2022-07-03T10:09:32;99439.44;;;32.83;29.84
24620;BME280;12763;55.802;37.404;2022-07-03T10:12:02;99449.41;;;32.46;29.98
24620;BME280;12763;55.802;37.404;2022-07-03T10:14:30;99440.34;;;32.72;29.90
24620;BME280;12763;55.802;37.404;2022-07-03T10:16:57;99457.38;;;32.68;30.42
24620;BME280;12763;55.802;37.404;2022-07-03T10:19:29;99447.25;;;32.71;30.24
24620;BME280;12763;55.802;37.404;2022-07-03T10:21:57;99444.06;;;32.44;30.10
24620;BME280;12763;55.802;37.404;2022-07-03T10:24:29;99436.59;;;33.65;29.07
24620;BME280;12763;55.802;37.404;2022-07-03T10:26:56;99432.88;;;32.98;29.88
24620;BME280;12763;55.802;37.404;2022-07-03T10:29:27;99445.78;;;32.77;29.71
24620;BME280;12763;55.802;37.404;2022-07-03T10:31:53;99460.63;;;33.29;29.15
24620;BME280;12763;55.802;37.404;2022-07-03T10:34:21;99445.28;;;33.88;28.75
24620;BME280;12763;55.802;37.404;2022-07-03T10:36:51;99448.94;;;33.53;28.50
24620;BME280;12763;55.802;37.404;2022-07-03T10:43:06;99440.91;;;33.94;28.69
24620;BME280;12763;55.802;37.404;2022-07-03T10:46:29;99449.72;;;34.85;27.63
24620;BME280;12763;55.802;37.404;2022-07-03T10:51:22;99442.91;;;34.93;27.76
24620;BME280;12763;55.802;37.404;2022-07-03T10:53:48;99434.16;;;34.86;27.70
24620;BME280;12763;55.802;37.404;2022-07-03T10:56:15;99440.56;;;35.24;27.82
24620;BME280;12763;55.802;37.404;2022-07-03T10:58:57;99442.38;;;35.88;26.90
24620;BME280;12763;55.802;37.404;2022-07-03T11:01:31;99425.84;;;36.08;26.74
24620;BME280;12763;55.802;37.404;2022-07-03T11:04:00;99435.91;;;36.58;25.68
24620;BME280;12763;55.802;37.404;2022-07-03T11:09:11;99431.00;;;35.66;27.22
24620;BME280;12763;55.802;37.404;2022-07-03T11:11:45;99423.13;;;35.59;26.61
24620;BME280;12763;55.802;37.404;2022-07-03T11:14:22;99417.25;;;36.08;26.09
24620;BME280;12763;55.802;37.404;2022-07-03T11:16:49;99419.44;;;36.55;25.77
24620;BME280;12763;55.802;37.404;2022-07-03T11:19:25;99425.13;;;36.88;25.53
24620;BME280;12763;55.802;37.404;2022-07-03T11:21:54;99421.47;;;36.51;25.04
24620;BME280;12763;55.802;37.404;2022-07-03T11:24:35;99414.50;;;36.19;25.22
24620;BME280;12763;55.802;37.404;2022-07-03T11:27:23;99414.50;;;35.33;26.02
24620;BME280;12763;55.802;37.404;2022-07-03T11:29:53;99428.50;;;36.24;25.17
24620;BME280;12763;55.802;37.404;2022-07-03T11:32:51;99416.72;;;37.13;23.91
24620;BME280;12763;55.802;37.404;2022-07-03T11:38:14;99412.50;;;38.27;23.10
24620;BME280;12763;55.802;37.404;2022-07-03T11:40:42;99421.09;;;38.16;23.48
24620;BME280;12763;55.802;37.404;2022-07-03T11:43:14;99421.84;;;37.34;24.54
24620;BME280;12763;55.802;37.404;2022-07-03T11:45:41;99426.09;;;37.50;24.44
24620;BME280;12763;55.802;37.404;2022-07-03T11:48:15;99410.44;;;37.51;23.64
24620;BME280;12763;55.802;37.404;2022-07-03T11:50:46;99426.47;;;37.49;23.65
24620;BME280;12763;55.802;37.404;2022-07-03T11:53:19;99408.28;;;37.99;22.95
24620;BME280;12763;55.802;37.404;2022-07-03T11:55:54;99404.72;;;38.34;22.76
24620;BME280;12763;55.802;37.404;2022-07-03T11:58:22;99415.72;;;38.14;23.06
24620;BME280;12763;55.802;37.404;2022-07-03T12:00:48;99416.94;;;38.06;22.74
24620;BME280;12763;55.802;37.404;2022-07-03T12:03:21;99408.66;;;37.98;22.26
24620;BME280;12763;55.802;37.404;2022-07-03T12:06:01;99413.72;;;38.26;22.76
24620;BME280;12763;55.802;37.404;2022-07-03T12:08:31;99406.28;;;38.21;22.67
24620;BME280;12763;55.802;37.404;2022-07-03T12:11:00;99406.81;;;37.58;23.51
24620;BME280;12763;55.802;37.404;2022-07-03T12:13:26;99391.88;;;38.17;22.80
24620;BME280;12763;55.802;37.404;2022-07-03T12:16:07;99403.94;;;38.58;23.04
24620;BME280;12763;55.802;37.404;2022-07-03T12:18:53;99406.09;;;38.97;21.77
24620;BME280;12763;55.802;37.404;2022-07-03T12:21:23;99411.34;;;38.42;21.97
24620;BME280;12763;55.802;37.404;2022-07-03T12:23:54;99408.47;;;38.49;21.85
24620;BME280;12763;55.802;37.404;2022-07-03T12:26:34;99397.41;;;38.86;21.39
24620;BME280;12763;55.802;37.404;2022-07-03T12:29:08;99399.88;;;38.84;22.02
24620;BME280;12763;55.802;37.404;2022-07-03T12:31:35;99408.13;;;38.78;22.06
24620;BME280;12763;55.802;37.404;2022-07-03T12:34:04;99401.53;;;38.85;21.52
24620;BME280;12763;55.802;37.404;2022-07-03T12:36:30;99395.13;;;38.09;22.24
24620;BME280;12763;55.802;37.404;2022-07-03T12:39:02;99396.31;;;37.94;22.93
24620;BME280;12763;55.802;37.404;2022-07-03T12:41:29;99395.91;;;37.95;22.70
24620;BME280;12763;55.802;37.404;2022-07-03T12:43:58;99405.19;;;37.64;22.80
24620;BME280;12763;55.802;37.404;2022-07-03T12:46:27;99384.19;;;38.50;22.00
24620;BME280;12763;55.802;37.404;2022-07-03T12:49:07;99393.28;;;38.98;22.08
24620;BME280;12763;55.802;37.404;2022-07-03T12:51:48;99385.88;;;39.43;21.49
24620;BME280;12763;55.802;37.404;2022-07-03T12:54:34;99390.78;;;38.75;21.20
24620;BME280;12763;55.802;37.404;2022-07-03T12:57:09;99391.63;;;39.46;20.64
24620;BME280;12763;55.802;37.404;2022-07-03T13:00:09;99387.97;;;40.43;19.81
24620;BME280;12763;55.802;37.404;2022-07-03T13:02:40;99391.50;;;39.92;20.59
24620;BME280;12763;55.802;37.404;2022-07-03T13:07:49;99390.75;;;38.47;22.07
24620;BME280;12763;55.802;37.404;2022-07-03T13:10:18;99385.84;;;38.75;21.39
24620;BME280;12763;55.802;37.404;2022-07-03T13:15:20;99384.44;;;40.14;20.49
24620;BME280;12763;55.802;37.404;2022-07-03T13:20:27;99387.50;;;41.10;19.28
24620;BME280;12763;55.802;37.404;2022-07-03T13:23:01;99377.09;;;41.60;18.98
24620;BME280;12763;55.802;37.404;2022-07-03T13:25:28;99381.13;;;41.74;18.85
24620;BME280;12763;55.802;37.404;2022-07-03T13:28:14;99384.31;;;40.97;19.35
24620;BME280;12763;55.802;37.404;2022-07-03T13:30:42;99382.94;;;39.71;20.67
24620;BME280;12763;55.802;37.404;2022-07-03T13:33:09;99372.28;;;38.76;21.74
24620;BME280;12763;55.802;37.404;2022-07-03T13:35:36;99383.25;;;39.94;20.56
24620;BME280;12763;55.802;37.404;2022-07-03T13:38:03;99369.16;;;40.14;20.14
24620;BME280;12763;55.802;37.404;2022-07-03T13:40:30;99375.00;;;39.96;19.97
24620;BME280;12763;55.802;37.404;2022-07-03T13:42:57;99361.13;;;39.42;20.19
24620;BME280;12763;55.802;37.404;2022-07-03T13:45:22;99364.63;;;40.13;19.66
24620;BME280;12763;55.802;37.404;2022-07-03T13:47:48;99365.28;;;41.03;18.92
24620;BME280;12763;55.802;37.404;2022-07-03T13:50:14;99364.47;;;40.37;19.39
24620;BME280;12763;55.802;37.404;2022-07-03T13:52:40;99363.03;;;40.74;19.02
24620;BME280;12763;55.802;37.404;2022-07-03T13:55:07;99371.72;;;41.18;19.26
24620;BME280;12763;55.802;37.404;2022-07-03T13:57:33;99369.38;;;42.18;18.17